This is the latest recevied weather packets stored in our database for station/object KB1JL-13. If no packets are shown the sender has not sent any weather packets the latest 10 day(s).
| Time | Temp. | Humidity | Pressure | Rain* | Wind** | Luminosity | Snow |
|---|---|---|---|---|---|---|---|
| 1777438326 | 9.44° C | 80% | 1030.5 hPa | 0 mm | - | 0 W/m² | - |
| 1777438021 | 9.44° C | 80% | 1030.5 hPa | 0 mm | - | 0 W/m² | - |
| 1777437717 | 9.44° C | 80% | 1030.5 hPa | 0 mm | - | 0 W/m² | - |
| 1777437415 | 9.44° C | 80% | 1030.5 hPa | 0 mm | - | 0 W/m² | - |
| 1777437111 | 9.44° C | 80% | 1030.5 hPa | 0 mm | - | 0 W/m² | - |
| 1777436808 | 9.44° C | 80% | 1030.5 hPa | 0 mm | - | 0 W/m² | - |
| 1777436503 | 10° C | 80% | 1030.8 hPa | 0 mm | - | 0 W/m² | - |
| 1777436200 | 10° C | 79% | 1030.5 hPa | 0 mm | - | 0 W/m² | - |
| 1777435898 | 10° C | 79% | 1030.5 hPa | 0 mm | - | 0 W/m² | - |
| 1777434988 | 10° C | 80% | 1030.5 hPa | 0 mm | - | 0 W/m² | - |
| 1777433165 | 10° C | 79% | 1030.1 hPa | 0 mm | - | 0 W/m² | - |
| 1777429211 | 10.56° C | 78% | 1030.1 hPa | 0 mm | - | 0 W/m² | - |
| 1777428907 | 10.56° C | 77% | 1030.5 hPa | 0 mm | - | 0 W/m² | - |
| 1777423436 | 11.11° C | 72% | 1030.1 hPa | 0 mm | - | 0 W/m² | - |
| 1777423131 | 11.67° C | 73% | 1030.1 hPa | 0 mm | - | 0 W/m² | - |
| 1777422826 | 11.67° C | 72% | 1029.8 hPa | 0 mm | - | 0 W/m² | - |
| 1777422522 | 11.67° C | 72% | 1030.1 hPa | 0 mm | - | 0 W/m² | - |
| 1777421005 | 11.67° C | 71% | 1029.8 hPa | 0 mm | - | 0 W/m² | - |
| 1777420701 | 12.22° C | 71% | 1030.1 hPa | 0 mm | - | 0 W/m² | - |
| 1777418578 | 13.33° C | 63% | 1030.1 hPa | 0 mm | - | 6 W/m² | - |
| 1777416146 | 15° C | 55% | 1030.1 hPa | 0 mm | - | 19 W/m² | - |
| 1777411887 | 16.67° C | 52% | 1029.8 hPa | 0 mm | - | 109 W/m² | - |
| 1777411281 | 16.67° C | 49% | 1029.8 hPa | 0 mm | - | 130 W/m² | - |
| 1777410369 | 17.22° C | 51% | 1029.8 hPa | 0 mm | - | 147 W/m² | - |
| 1777410069 | 17.22° C | 49% | 1030.1 hPa | 0 mm | - | 159 W/m² | - |
* Rain latest hour (hover to see other rain measurements)
** Current wind speed in m/s (hover to see current wind gust speed)